sensor_id;sensor_type;location;lat;lon;timestamp;pressure;altitude;pressure_sealevel;temperature;humidity
28428;BME280;15662;49.128;8.520;2023-08-20T00:02:08;100724.28;;;29.98;53.84
28428;BME280;15662;49.128;8.520;2023-08-20T00:04:37;100721.16;;;29.93;53.90
28428;BME280;15662;49.128;8.520;2023-08-20T00:07:07;100728.69;;;29.91;53.84
28428;BME280;15662;49.128;8.520;2023-08-20T00:09:35;100721.97;;;29.86;53.75
28428;BME280;15662;49.128;8.520;2023-08-20T00:12:04;100727.91;;;29.81;53.88
28428;BME280;15662;49.128;8.520;2023-08-20T00:14:58;100727.66;;;29.74;53.94
28428;BME280;15662;49.128;8.520;2023-08-20T00:17:37;100727.72;;;29.65;53.87
28428;BME280;15662;49.128;8.520;2023-08-20T00:20:08;100725.75;;;29.57;53.93
28428;BME280;15662;49.128;8.520;2023-08-20T00:22:44;100724.31;;;29.53;54.41
28428;BME280;15662;49.128;8.520;2023-08-20T00:25:15;100718.16;;;29.51;53.95
28428;BME280;15662;49.128;8.520;2023-08-20T00:27:43;100721.88;;;29.50;54.27
28428;BME280;15662;49.128;8.520;2023-08-20T00:30:12;100727.50;;;29.48;54.32
28428;BME280;15662;49.128;8.520;2023-08-20T00:32:40;100731.41;;;29.46;54.31
28428;BME280;15662;49.128;8.520;2023-08-20T00:35:08;100740.91;;;29.42;54.65
28428;BME280;15662;49.128;8.520;2023-08-20T00:37:37;100745.66;;;29.40;54.78
28428;BME280;15662;49.128;8.520;2023-08-20T00:40:05;100740.53;;;29.37;54.91
28428;BME280;15662;49.128;8.520;2023-08-20T00:42:36;100738.53;;;29.29;54.65
28428;BME280;15662;49.128;8.520;2023-08-20T00:45:05;100749.44;;;29.29;54.85
28428;BME280;15662;49.128;8.520;2023-08-20T00:47:34;100738.81;;;29.26;54.59
28428;BME280;15662;49.128;8.520;2023-08-20T00:50:03;100733.69;;;29.23;55.08
28428;BME280;15662;49.128;8.520;2023-08-20T00:52:34;100746.00;;;28.99;54.83
28428;BME280;15662;49.128;8.520;2023-08-20T00:55:10;100755.16;;;29.08;55.07
28428;BME280;15662;49.128;8.520;2023-08-20T00:57:41;100753.44;;;29.07;55.00
28428;BME280;15662;49.128;8.520;2023-08-20T01:00:09;100749.69;;;29.08;55.23
28428;BME280;15662;49.128;8.520;2023-08-20T01:02:39;100740.78;;;29.06;54.92
28428;BME280;15662;49.128;8.520;2023-08-20T01:05:10;100744.09;;;29.10;55.36
28428;BME280;15662;49.128;8.520;2023-08-20T01:10:57;100749.75;;;28.98;55.30
28428;BME280;15662;49.128;8.520;2023-08-20T01:13:27;100746.72;;;29.01;55.33
28428;BME280;15662;49.128;8.520;2023-08-20T01:15:55;100741.81;;;29.05;55.16
28428;BME280;15662;49.128;8.520;2023-08-20T01:18:24;100744.25;;;29.08;55.20
28428;BME280;15662;49.128;8.520;2023-08-20T01:21:03;100741.19;;;29.11;55.39
28428;BME280;15662;49.128;8.520;2023-08-20T01:24:10;100748.00;;;29.07;55.03
28428;BME280;15662;49.128;8.520;2023-08-20T01:27:07;100750.31;;;29.02;55.26
28428;BME280;15662;49.128;8.520;2023-08-20T01:29:38;100755.88;;;28.91;55.34
28428;BME280;15662;49.128;8.520;2023-08-20T01:32:07;100760.50;;;28.90;55.54
28428;BME280;15662;49.128;8.520;2023-08-20T01:34:35;100747.75;;;28.81;55.67
28428;BME280;15662;49.128;8.520;2023-08-20T01:37:03;100749.78;;;28.79;55.28
28428;BME280;15662;49.128;8.520;2023-08-20T01:39:31;100753.94;;;28.73;55.73
28428;BME280;15662;49.128;8.520;2023-08-20T01:41:59;100755.50;;;28.76;55.34
28428;BME280;15662;49.128;8.520;2023-08-20T01:44:27;100749.19;;;28.75;55.72
28428;BME280;15662;49.128;8.520;2023-08-20T01:46:54;100750.06;;;28.76;55.72
28428;BME280;15662;49.128;8.520;2023-08-20T01:49:22;100756.38;;;28.76;55.81
28428;BME280;15662;49.128;8.520;2023-08-20T01:51:50;100747.31;;;28.76;55.45
28428;BME280;15662;49.128;8.520;2023-08-20T01:54:18;100751.78;;;28.77;55.85
28428;BME280;15662;49.128;8.520;2023-08-20T01:56:46;100744.91;;;28.73;55.95
28428;BME280;15662;49.128;8.520;2023-08-20T01:59:14;100753.22;;;28.71;55.83
28428;BME280;15662;49.128;8.520;2023-08-20T02:01:41;100741.75;;;28.68;55.79
28428;BME280;15662;49.128;8.520;2023-08-20T02:04:09;100745.34;;;28.68;55.88
28428;BME280;15662;49.128;8.520;2023-08-20T02:06:37;100747.75;;;28.71;55.94
28428;BME280;15662;49.128;8.520;2023-08-20T02:09:06;100744.19;;;28.71;55.59
28428;BME280;15662;49.128;8.520;2023-08-20T02:11:34;100747.75;;;28.71;55.62
28428;BME280;15662;49.128;8.520;2023-08-20T02:14:03;100744.34;;;28.69;56.08
28428;BME280;15662;49.128;8.520;2023-08-20T02:16:31;100736.31;;;28.68;55.69
28428;BME280;15662;49.128;8.520;2023-08-20T02:18:59;100735.59;;;28.66;56.22
28428;BME280;15662;49.128;8.520;2023-08-20T02:21:29;100726.69;;;28.64;55.86
28428;BME280;15662;49.128;8.520;2023-08-20T02:23:58;100730.28;;;28.64;56.29
28428;BME280;15662;49.128;8.520;2023-08-20T02:26:25;100728.69;;;28.62;56.39
28428;BME280;15662;49.128;8.520;2023-08-20T02:28:53;100736.88;;;28.62;56.58
28428;BME280;15662;49.128;8.520;2023-08-20T02:31:21;100725.44;;;28.58;56.31
28428;BME280;15662;49.128;8.520;2023-08-20T02:33:49;100730.88;;;28.58;56.42
28428;BME280;15662;49.128;8.520;2023-08-20T02:36:17;100728.59;;;28.53;56.07
28428;BME280;15662;49.128;8.520;2023-08-20T02:38:45;100726.47;;;28.47;56.11
28428;BME280;15662;49.128;8.520;2023-08-20T02:41:15;100730.06;;;28.38;56.10
28428;BME280;15662;49.128;8.520;2023-08-20T02:43:43;100738.66;;;28.34;56.09
28428;BME280;15662;49.128;8.520;2023-08-20T02:46:11;100739.19;;;28.27;56.20
28428;BME280;15662;49.128;8.520;2023-08-20T02:48:39;100729.03;;;28.20;56.51
28428;BME280;15662;49.128;8.520;2023-08-20T02:51:07;100732.03;;;28.17;56.49
28428;BME280;15662;49.128;8.520;2023-08-20T02:53:34;100726.91;;;28.14;56.63
28428;BME280;15662;49.128;8.520;2023-08-20T02:56:02;100735.06;;;28.14;56.40
28428;BME280;15662;49.128;8.520;2023-08-20T02:58:31;100721.00;;;28.09;56.79
28428;BME280;15662;49.128;8.520;2023-08-20T03:00:59;100732.63;;;28.11;56.64
28428;BME280;15662;49.128;8.520;2023-08-20T03:03:27;100726.75;;;28.06;56.47
28428;BME280;15662;49.128;8.520;2023-08-20T03:05:55;100727.91;;;28.03;56.45
28428;BME280;15662;49.128;8.520;2023-08-20T03:08:23;100724.88;;;27.96;56.37
28428;BME280;15662;49.128;8.520;2023-08-20T03:10:51;100732.91;;;27.98;56.59
28428;BME280;15662;49.128;8.520;2023-08-20T03:13:19;100727.91;;;27.93;56.49
28428;BME280;15662;49.128;8.520;2023-08-20T03:15:47;100730.91;;;27.90;56.91
28428;BME280;15662;49.128;8.520;2023-08-20T03:18:14;100731.91;;;27.89;56.60
28428;BME280;15662;49.128;8.520;2023-08-20T03:20:42;100722.28;;;27.85;56.82
28428;BME280;15662;49.128;8.520;2023-08-20T03:23:10;100722.28;;;27.85;56.91
28428;BME280;15662;49.128;8.520;2023-08-20T03:25:38;100723.41;;;27.83;56.77
28428;BME280;15662;49.128;8.520;2023-08-20T03:28:06;100740.94;;;27.80;57.06
28428;BME280;15662;49.128;8.520;2023-08-20T03:30:37;100745.09;;;27.74;56.86
28428;BME280;15662;49.128;8.520;2023-08-20T03:33:05;100742.47;;;27.73;56.91
28428;BME280;15662;49.128;8.520;2023-08-20T03:35:35;100735.84;;;27.66;56.97
28428;BME280;15662;49.128;8.520;2023-08-20T03:38:03;100741.31;;;27.66;56.95
28428;BME280;15662;49.128;8.520;2023-08-20T03:40:31;100734.41;;;27.62;56.95
28428;BME280;15662;49.128;8.520;2023-08-20T03:42:59;100738.56;;;27.56;56.94
28428;BME280;15662;49.128;8.520;2023-08-20T03:45:28;100747.16;;;27.61;56.99
28428;BME280;15662;49.128;8.520;2023-08-20T03:47:57;100741.44;;;27.55;56.88
28428;BME280;15662;49.128;8.520;2023-08-20T03:50:26;100751.47;;;27.54;56.96
28428;BME280;15662;49.128;8.520;2023-08-20T03:52:53;100744.69;;;27.48;56.95
28428;BME280;15662;49.128;8.520;2023-08-20T03:55:21;100744.69;;;27.48;56.92
28428;BME280;15662;49.128;8.520;2023-08-20T03:57:49;100757.78;;;27.55;57.13
28428;BME280;15662;49.128;8.520;2023-08-20T04:00:17;100750.03;;;27.50;57.27
28428;BME280;15662;49.128;8.520;2023-08-20T04:02:45;100759.34;;;27.57;57.26
28428;BME280;15662;49.128;8.520;2023-08-20T04:05:13;100756.50;;;27.59;57.02
28428;BME280;15662;49.128;8.520;2023-08-20T04:07:41;100759.22;;;27.59;57.29
28428;BME280;15662;49.128;8.520;2023-08-20T04:10:09;100750.47;;;27.55;57.49
28428;BME280;15662;49.128;8.520;2023-08-20T04:12:37;100742.56;;;27.52;57.61
28428;BME280;15662;49.128;8.520;2023-08-20T04:15:05;100751.59;;;27.52;57.83
28428;BME280;15662;49.128;8.520;2023-08-20T04:17:33;100761.63;;;27.52;57.88
28428;BME280;15662;49.128;8.520;2023-08-20T04:20:02;100771.66;;;27.51;57.79
28428;BME280;15662;49.128;8.520;2023-08-20T04:22:31;100769.94;;;27.50;57.74
28428;BME280;15662;49.128;8.520;2023-08-20T04:24:59;100751.28;;;27.46;57.71
28428;BME280;15662;49.128;8.520;2023-08-20T04:27:30;100738.81;;;27.43;57.70
28428;BME280;15662;49.128;8.520;2023-08-20T04:29:57;100731.38;;;27.45;57.70
28428;BME280;15662;49.128;8.520;2023-08-20T04:32:25;100733.34;;;27.43;58.02
28428;BME280;15662;49.128;8.520;2023-08-20T04:34:54;100738.09;;;27.41;58.01
28428;BME280;15662;49.128;8.520;2023-08-20T04:37:23;100746.25;;;27.41;58.06
28428;BME280;15662;49.128;8.520;2023-08-20T04:39:52;100763.72;;;27.39;58.11
28428;BME280;15662;49.128;8.520;2023-08-20T04:42:20;100773.47;;;27.41;57.98
28428;BME280;15662;49.128;8.520;2023-08-20T04:44:48;100769.03;;;27.40;58.04
28428;BME280;15662;49.128;8.520;2023-08-20T04:47:16;100774.91;;;27.36;57.84
28428;BME280;15662;49.128;8.520;2023-08-20T04:49:44;100774.91;;;27.36;57.69
28428;BME280;15662;49.128;8.520;2023-08-20T04:52:13;100780.34;;;27.36;57.56
28428;BME280;15662;49.128;8.520;2023-08-20T04:54:41;100782.22;;;27.35;57.69
28428;BME280;15662;49.128;8.520;2023-08-20T04:57:09;100783.06;;;27.36;57.60
28428;BME280;15662;49.128;8.520;2023-08-20T04:59:37;100776.47;;;27.38;57.69
28428;BME280;15662;49.128;8.520;2023-08-20T05:02:05;100782.50;;;27.42;57.74
28428;BME280;15662;49.128;8.520;2023-08-20T05:04:45;100782.66;;;27.40;57.75
28428;BME280;15662;49.128;8.520;2023-08-20T05:07:13;100782.66;;;27.40;57.93
28428;BME280;15662;49.128;8.520;2023-08-20T05:09:41;100785.38;;;27.40;57.77
28428;BME280;15662;49.128;8.520;2023-08-20T05:12:09;100792.69;;;27.40;57.93
28428;BME280;15662;49.128;8.520;2023-08-20T05:14:37;100802.56;;;27.41;57.94
28428;BME280;15662;49.128;8.520;2023-08-20T05:17:05;100800.72;;;27.41;57.91
28428;BME280;15662;49.128;8.520;2023-08-20T05:19:33;100794.13;;;27.44;57.89
28428;BME280;15662;49.128;8.520;2023-08-20T05:22:01;100791.28;;;27.45;57.84
28428;BME280;15662;49.128;8.520;2023-08-20T05:24:33;100792.97;;;27.46;57.94
28428;BME280;15662;49.128;8.520;2023-08-20T05:27:09;100788.53;;;27.45;57.87
28428;BME280;15662;49.128;8.520;2023-08-20T05:29:37;100797.56;;;27.46;58.05
28428;BME280;15662;49.128;8.520;2023-08-20T05:32:07;100789.56;;;27.44;58.04
28428;BME280;15662;49.128;8.520;2023-08-20T05:34:35;100802.88;;;27.47;58.21
28428;BME280;15662;49.128;8.520;2023-08-20T05:37:04;100800.03;;;27.49;58.15
28428;BME280;15662;49.128;8.520;2023-08-20T05:39:40;100794.28;;;27.52;58.22
28428;BME280;15662;49.128;8.520;2023-08-20T05:42:08;100805.78;;;27.56;58.29
28428;BME280;15662;49.128;8.520;2023-08-20T05:44:37;100809.94;;;27.60;58.48
28428;BME280;15662;49.128;8.520;2023-08-20T05:47:07;100822.56;;;27.61;58.36
28428;BME280;15662;49.128;8.520;2023-08-20T05:49:35;100816.09;;;27.62;58.53
28428;BME280;15662;49.128;8.520;2023-08-20T05:52:03;100816.84;;;27.64;58.57
28428;BME280;15662;49.128;8.520;2023-08-20T05:54:31;100823.31;;;27.72;58.56
28428;BME280;15662;49.128;8.520;2023-08-20T05:56:59;100831.69;;;27.81;58.66
28428;BME280;15662;49.128;8.520;2023-08-20T05:59:28;100831.97;;;27.87;58.83
28428;BME280;15662;49.128;8.520;2023-08-20T06:01:55;100836.00;;;27.93;58.47
28428;BME280;15662;49.128;8.520;2023-08-20T06:04:23;100823.97;;;27.95;58.43
28428;BME280;15662;49.128;8.520;2023-08-20T06:06:51;100827.72;;;28.04;58.39
28428;BME280;15662;49.128;8.520;2023-08-20T06:09:19;100837.03;;;28.11;58.24
28428;BME280;15662;49.128;8.520;2023-08-20T06:11:47;100824.84;;;28.15;58.54
28428;BME280;15662;49.128;8.520;2023-08-20T06:14:15;100825.44;;;28.19;58.14
28428;BME280;15662;49.128;8.520;2023-08-20T06:16:44;100827.59;;;28.25;58.14
28428;BME280;15662;49.128;8.520;2023-08-20T06:19:11;100827.44;;;28.26;58.40
28428;BME280;15662;49.128;8.520;2023-08-20T06:21:39;100835.19;;;28.31;58.08
28428;BME280;15662;49.128;8.520;2023-08-20T06:24:07;100836.66;;;28.35;58.23
28428;BME280;15662;49.128;8.520;2023-08-20T06:26:36;100847.13;;;28.40;58.38
28428;BME280;15662;49.128;8.520;2023-08-20T06:29:04;100840.66;;;28.41;58.55
28428;BME280;15662;49.128;8.520;2023-08-20T06:31:32;100848.16;;;28.48;58.39
28428;BME280;15662;49.128;8.520;2023-08-20T06:33:59;100840.53;;;28.52;58.26
28428;BME280;15662;49.128;8.520;2023-08-20T06:36:27;100843.97;;;28.54;58.09
28428;BME280;15662;49.128;8.520;2023-08-20T06:48:05;100841.84;;;28.48;57.25
28428;BME280;15662;49.128;8.520;2023-08-20T06:50:35;100840.97;;;28.47;57.34
28428;BME280;15662;49.128;8.520;2023-08-20T06:53:07;100834.22;;;28.51;57.62
28428;BME280;15662;49.128;8.520;2023-08-20T06:55:37;100859.75;;;28.70;57.64
28428;BME280;15662;49.128;8.520;2023-08-20T06:58:14;100852.31;;;28.72;57.14
28428;BME280;15662;49.128;8.520;2023-08-20T07:00:48;100862.75;;;28.96;56.87
28428;BME280;15662;49.128;8.520;2023-08-20T07:03:20;100845.66;;;28.94;57.15
28428;BME280;15662;49.128;8.520;2023-08-20T07:05:53;100832.47;;;28.99;56.65
28428;BME280;15662;49.128;8.520;2023-08-20T07:08:23;100845.94;;;29.10;56.50
28428;BME280;15662;49.128;8.520;2023-08-20T07:11:02;100845.03;;;29.19;56.55
28428;BME280;15662;49.128;8.520;2023-08-20T07:13:39;100830.69;;;29.17;56.07
28428;BME280;15662;49.128;8.520;2023-08-20T07:16:12;100836.41;;;29.24;56.19
28428;BME280;15662;49.128;8.520;2023-08-20T07:18:46;100849.44;;;29.40;55.84
28428;BME280;15662;49.128;8.520;2023-08-20T07:21:17;100844.38;;;29.45;55.50
28428;BME280;15662;49.128;8.520;2023-08-20T07:23:47;100856.97;;;29.65;55.53
28428;BME280;15662;49.128;8.520;2023-08-20T07:26:18;100854.19;;;29.75;55.35
28428;BME280;15662;49.128;8.520;2023-08-20T07:28:47;100844.22;;;29.84;55.42
28428;BME280;15662;49.128;8.520;2023-08-20T07:31:32;100849.72;;;30.01;55.38
28428;BME280;15662;49.128;8.520;2023-08-20T07:34:02;100836.13;;;30.10;55.02
28428;BME280;15662;49.128;8.520;2023-08-20T07:36:43;100847.13;;;30.27;55.07
28428;BME280;15662;49.128;8.520;2023-08-20T07:39:11;100850.47;;;30.39;54.63
28428;BME280;15662;49.128;8.520;2023-08-20T07:41:46;100851.66;;;30.54;54.52
28428;BME280;15662;49.128;8.520;2023-08-20T07:44:18;100857.91;;;30.65;53.92
28428;BME280;15662;49.128;8.520;2023-08-20T07:46:50;100855.19;;;30.65;53.71
28428;BME280;15662;49.128;8.520;2023-08-20T07:49:27;100856.97;;;30.74;53.55
28428;BME280;15662;49.128;8.520;2023-08-20T07:51:57;100858.25;;;30.79;53.52
28428;BME280;15662;49.128;8.520;2023-08-20T07:54:25;100866.50;;;30.88;53.22
28428;BME280;15662;49.128;8.520;2023-08-20T07:56:57;100859.69;;;30.92;53.00
28428;BME280;15662;49.128;8.520;2023-08-20T07:59:33;100862.63;;;30.98;52.84
28428;BME280;15662;49.128;8.520;2023-08-20T08:02:07;100857.72;;;31.02;52.72
28428;BME280;15662;49.128;8.520;2023-08-20T08:04:36;100866.66;;;31.12;52.64
28428;BME280;15662;49.128;8.520;2023-08-20T08:07:13;100864.47;;;31.16;52.64
28428;BME280;15662;49.128;8.520;2023-08-20T08:09:42;100860.88;;;31.15;52.19
28428;BME280;15662;49.128;8.520;2023-08-20T08:12:17;100863.69;;;31.23;51.82
28428;BME280;15662;49.128;8.520;2023-08-20T08:14:51;100876.59;;;31.31;51.53
28428;BME280;15662;49.128;8.520;2023-08-20T08:17:24;100871.00;;;31.23;51.55
28428;BME280;15662;49.128;8.520;2023-08-20T08:19:57;100873.44;;;31.26;51.24
28428;BME280;15662;49.128;8.520;2023-08-20T08:22:31;100879.63;;;31.28;51.33
28428;BME280;15662;49.128;8.520;2023-08-20T08:25:04;100881.22;;;31.30;51.17
28428;BME280;15662;49.128;8.520;2023-08-20T08:27:42;100888.16;;;31.25;51.06
28428;BME280;15662;49.128;8.520;2023-08-20T08:30:32;100889.72;;;31.27;51.13
28428;BME280;15662;49.128;8.520;2023-08-20T08:33:07;100879.63;;;31.28;51.36
28428;BME280;15662;49.128;8.520;2023-08-20T08:35:38;100883.78;;;31.32;51.15
28428;BME280;15662;49.128;8.520;2023-08-20T08:38:13;100877.13;;;31.34;50.98
28428;BME280;15662;49.128;8.520;2023-08-20T08:40:46;100893.28;;;31.46;50.79
28428;BME280;15662;49.128;8.520;2023-08-20T08:43:19;100887.31;;;31.50;50.68
28428;BME280;15662;49.128;8.520;2023-08-20T08:45:50;100879.28;;;31.49;50.67
28428;BME280;15662;49.128;8.520;2023-08-20T08:48:21;100883.22;;;31.54;50.60
28428;BME280;15662;49.128;8.520;2023-08-20T08:50:51;100881.72;;;31.60;50.40
28428;BME280;15662;49.128;8.520;2023-08-20T08:53:24;100882.81;;;31.41;51.05
28428;BME280;15662;49.128;8.520;2023-08-20T08:55:53;100883.22;;;31.54;50.58
28428;BME280;15662;49.128;8.520;2023-08-20T08:58:26;100899.56;;;31.72;50.24
28428;BME280;15662;49.128;8.520;2023-08-20T09:00:58;100879.53;;;31.72;50.41
28428;BME280;15662;49.128;8.520;2023-08-20T09:03:32;100891.13;;;31.92;50.02
28428;BME280;15662;49.128;8.520;2023-08-20T09:06:09;100887.38;;;31.93;49.62
28428;BME280;15662;49.128;8.520;2023-08-20T09:08:46;100889.94;;;31.94;49.81
28428;BME280;15662;49.128;8.520;2023-08-20T09:11:20;100874.34;;;31.95;49.78
28428;BME280;15662;49.128;8.520;2023-08-20T09:13:53;100884.88;;;32.07;49.82
28428;BME280;15662;49.128;8.520;2023-08-20T09:16:31;100886.22;;;32.11;49.33
28428;BME280;15662;49.128;8.520;2023-08-20T09:19:07;100880.25;;;32.08;49.52
28428;BME280;15662;49.128;8.520;2023-08-20T09:21:38;100881.94;;;32.09;49.30
28428;BME280;15662;49.128;8.520;2023-08-20T09:24:12;100884.19;;;32.14;49.21
28428;BME280;15662;49.128;8.520;2023-08-20T09:26:46;100880.09;;;32.18;48.98
28428;BME280;15662;49.128;8.520;2023-08-20T09:29:17;100883.16;;;32.15;48.62
28428;BME280;15662;49.128;8.520;2023-08-20T09:31:47;100871.88;;;32.18;48.61
28428;BME280;15662;49.128;8.520;2023-08-20T09:34:16;100889.69;;;32.30;48.48
28428;BME280;15662;49.128;8.520;2023-08-20T09:36:45;100893.38;;;32.39;48.33
28428;BME280;15662;49.128;8.520;2023-08-20T09:39:19;100888.16;;;32.35;48.08
28428;BME280;15662;49.128;8.520;2023-08-20T09:41:48;100887.56;;;32.42;48.47
28428;BME280;15662;49.128;8.520;2023-08-20T09:44:27;100884.28;;;32.46;48.24
28428;BME280;15662;49.128;8.520;2023-08-20T09:47:14;100888.59;;;32.57;48.11
28428;BME280;15662;49.128;8.520;2023-08-20T09:49:48;100899.56;;;32.57;47.95
28428;BME280;15662;49.128;8.520;2023-08-20T09:52:34;100896.47;;;32.60;47.95
28428;BME280;15662;49.128;8.520;2023-08-20T09:55:17;100883.59;;;32.60;48.01
28428;BME280;15662;49.128;8.520;2023-08-20T09:57:58;100894.25;;;32.64;48.38
28428;BME280;15662;49.128;8.520;2023-08-20T10:00:28;100876.22;;;32.61;47.90
28428;BME280;15662;49.128;8.520;2023-08-20T10:02:59;100894.25;;;32.72;47.76
28428;BME280;15662;49.128;8.520;2023-08-20T10:05:33;100890.66;;;32.79;47.60
28428;BME280;15662;49.128;8.520;2023-08-20T10:08:02;100872.47;;;32.78;47.35
28428;BME280;15662;49.128;8.520;2023-08-20T10:10:32;100873.00;;;32.82;47.29
28428;BME280;15662;49.128;8.520;2023-08-20T10:13:04;100871.63;;;32.94;47.44
28428;BME280;15662;49.128;8.520;2023-08-20T10:15:36;100872.34;;;32.96;47.04
28428;BME280;15662;49.128;8.520;2023-08-20T10:18:15;100869.22;;;33.07;46.68
28428;BME280;15662;49.128;8.520;2023-08-20T10:20:51;100874.72;;;33.16;46.40
28428;BME280;15662;49.128;8.520;2023-08-20T10:23:24;100860.47;;;33.12;45.99
28428;BME280;15662;49.128;8.520;2023-08-20T10:26:08;100865.91;;;33.20;46.00
28428;BME280;15662;49.128;8.520;2023-08-20T10:28:43;100888.03;;;33.35;46.22
28428;BME280;15662;49.128;8.520;2023-08-20T10:31:16;100871.41;;;33.28;45.75
28428;BME280;15662;49.128;8.520;2023-08-20T10:33:55;100858.38;;;33.30;45.62
28428;BME280;15662;49.128;8.520;2023-08-20T10:36:27;100855.31;;;33.09;46.49
28428;BME280;15662;49.128;8.520;2023-08-20T10:39:05;100866.94;;;33.35;46.16
28428;BME280;15662;49.128;8.520;2023-08-20T10:41:38;100847.00;;;33.33;45.76
28428;BME280;15662;49.128;8.520;2023-08-20T10:44:18;100861.44;;;33.44;45.55
28428;BME280;15662;49.128;8.520;2023-08-20T10:46:58;100869.13;;;33.56;45.53
28428;BME280;15662;49.128;8.520;2023-08-20T10:49:42;100856.59;;;33.54;45.34
28428;BME280;15662;49.128;8.520;2023-08-20T10:52:24;100844.41;;;33.56;44.67
28428;BME280;15662;49.128;8.520;2023-08-20T10:55:03;100851.59;;;33.66;45.00
28428;BME280;15662;49.128;8.520;2023-08-20T10:57:40;100855.13;;;33.74;44.71
28428;BME280;15662;49.128;8.520;2023-08-20T11:00:15;100852.56;;;33.73;44.56
28428;BME280;15662;49.128;8.520;2023-08-20T11:02:45;100859.44;;;33.77;44.79
28428;BME280;15662;49.128;8.520;2023-08-20T11:05:21;100868.31;;;33.87;44.29
28428;BME280;15662;49.128;8.520;2023-08-20T11:07:53;100837.09;;;33.80;43.98
28428;BME280;15662;49.128;8.520;2023-08-20T11:10:23;100851.81;;;33.87;43.99
28428;BME280;15662;49.128;8.520;2023-08-20T11:12:58;100850.22;;;33.93;44.21
28428;BME280;15662;49.128;8.520;2023-08-20T11:15:36;100844.91;;;33.99;44.29
28428;BME280;15662;49.128;8.520;2023-08-20T11:18:07;100837.13;;;34.03;43.54
28428;BME280;15662;49.128;8.520;2023-08-20T11:20:37;100850.97;;;34.18;43.59
28428;BME280;15662;49.128;8.520;2023-08-20T11:23:09;100826.09;;;34.11;43.23
28428;BME280;15662;49.128;8.520;2023-08-20T11:25:44;100848.13;;;34.34;43.16
28428;BME280;15662;49.128;8.520;2023-08-20T11:28:20;100841.59;;;34.35;42.86
28428;BME280;15662;49.128;8.520;2023-08-20T11:30:50;100837.28;;;34.32;42.40
28428;BME280;15662;49.128;8.520;2023-08-20T11:33:23;100823.38;;;34.34;42.15
28428;BME280;15662;49.128;8.520;2023-08-20T11:35:57;100834.13;;;34.44;41.41
28428;BME280;15662;49.128;8.520;2023-08-20T11:38:26;100837.22;;;34.49;41.18
28428;BME280;15662;49.128;8.520;2023-08-20T11:41:07;100829.81;;;34.49;41.00
28428;BME280;15662;49.128;8.520;2023-08-20T11:43:43;100840.56;;;34.59;40.80
28428;BME280;15662;49.128;8.520;2023-08-20T11:46:18;100822.81;;;34.61;40.72
28428;BME280;15662;49.128;8.520;2023-08-20T11:51:48;100831.31;;;34.75;39.64
28428;BME280;15662;49.128;8.520;2023-08-20T11:54:18;100827.22;;;34.71;39.92
28428;BME280;15662;49.128;8.520;2023-08-20T11:56:51;100819.06;;;34.77;39.75
28428;BME280;15662;49.128;8.520;2023-08-20T11:59:27;100816.69;;;34.74;40.04
28428;BME280;15662;49.128;8.520;2023-08-20T12:02:04;100817.63;;;34.81;39.76
28428;BME280;15662;49.128;8.520;2023-08-20T12:04:34;100827.25;;;34.85;39.94
28428;BME280;15662;49.128;8.520;2023-08-20T12:07:15;100816.31;;;34.92;39.88
28428;BME280;15662;49.128;8.520;2023-08-20T12:09:45;100813.97;;;34.89;39.89
28428;BME280;15662;49.128;8.520;2023-08-20T12:12:20;100818.56;;;34.97;39.22
28428;BME280;15662;49.128;8.520;2023-08-20T12:14:52;100796.03;;;34.93;39.27
28428;BME280;15662;49.128;8.520;2023-08-20T12:17:21;100792.22;;;34.94;39.32
28428;BME280;15662;49.128;8.520;2023-08-20T12:19:52;100810.91;;;34.84;39.82
28428;BME280;15662;49.128;8.520;2023-08-20T12:22:21;100800.50;;;34.94;39.58
28428;BME280;15662;49.128;8.520;2023-08-20T12:24:50;100789.59;;;35.01;39.35
28428;BME280;15662;49.128;8.520;2023-08-20T12:27:25;100801.38;;;35.09;39.22
28428;BME280;15662;49.128;8.520;2023-08-20T12:29:56;100804.78;;;34.97;40.20
28428;BME280;15662;49.128;8.520;2023-08-20T12:32:24;100800.41;;;35.02;39.34
28428;BME280;15662;49.128;8.520;2023-08-20T12:34:59;100805.28;;;35.15;38.84
28428;BME280;15662;49.128;8.520;2023-08-20T12:37:33;100785.91;;;35.08;38.70
28428;BME280;15662;49.128;8.520;2023-08-20T12:40:10;100788.94;;;35.13;38.74
28428;BME280;15662;49.128;8.520;2023-08-20T12:42:40;100805.66;;;35.27;38.58
28428;BME280;15662;49.128;8.520;2023-08-20T12:45:14;100792.44;;;35.22;38.49
28428;BME280;15662;49.128;8.520;2023-08-20T12:47:45;100778.38;;;35.17;38.16
28428;BME280;15662;49.128;8.520;2023-08-20T12:50:15;100784.16;;;35.22;38.20
28428;BME280;15662;49.128;8.520;2023-08-20T12:52:46;100770.78;;;35.19;37.58
28428;BME280;15662;49.128;8.520;2023-08-20T12:55:28;100790.72;;;35.36;37.82
28428;BME280;15662;49.128;8.520;2023-08-20T12:58:08;100774.31;;;35.28;37.50
28428;BME280;15662;49.128;8.520;2023-08-20T13:00:47;100771.44;;;35.36;37.73
28428;BME280;15662;49.128;8.520;2023-08-20T13:03:17;100779.13;;;35.40;37.61
28428;BME280;15662;49.128;8.520;2023-08-20T13:05:48;100767.63;;;35.37;37.32
28428;BME280;15662;49.128;8.520;2023-08-20T13:08:17;100756.59;;;35.37;36.90
28428;BME280;15662;49.128;8.520;2023-08-20T13:10:57;100776.38;;;35.55;36.77
28428;BME280;15662;49.128;8.520;2023-08-20T13:13:32;100768.03;;;35.49;36.50
28428;BME280;15662;49.128;8.520;2023-08-20T13:16:07;100768.53;;;35.52;36.30
28428;BME280;15662;49.128;8.520;2023-08-20T13:18:38;100767.94;;;35.57;35.62
28428;BME280;15662;49.128;8.520;2023-08-20T13:21:11;100749.81;;;35.48;35.54
28428;BME280;15662;49.128;8.520;2023-08-20T13:23:46;100764.72;;;35.53;35.67
28428;BME280;15662;49.128;8.520;2023-08-20T13:26:15;100772.00;;;35.61;35.25
28428;BME280;15662;49.128;8.520;2023-08-20T13:28:56;100750.66;;;35.33;36.50